sensor_id;sensor_type;location;lat;lon;timestamp;temperature;humidity
38746;DHT22;24488;0.000;0.000;2023-04-01T00:01:29;21.30;39.70
38746;DHT22;24488;0.000;0.000;2023-04-01T00:03:55;21.40;39.70
38746;DHT22;24488;0.000;0.000;2023-04-01T00:06:21;21.40;39.30
38746;DHT22;24488;0.000;0.000;2023-04-01T00:08:47;21.40;39.70
38746;DHT22;24488;0.000;0.000;2023-04-01T00:11:12;21.40;39.70
38746;DHT22;24488;0.000;0.000;2023-04-01T00:13:38;21.40;39.60
38746;DHT22;24488;0.000;0.000;2023-04-01T00:16:04;21.40;39.10
38746;DHT22;24488;0.000;0.000;2023-04-01T00:18:30;21.40;39.60
38746;DHT22;24488;0.000;0.000;2023-04-01T00:20:56;21.40;39.60
38746;DHT22;24488;0.000;0.000;2023-04-01T00:23:21;21.40;39.50
38746;DHT22;24488;0.000;0.000;2023-04-01T00:25:47;21.40;39.10
38746;DHT22;24488;0.000;0.000;2023-04-01T00:28:15;21.40;39.60
38746;DHT22;24488;0.000;0.000;2023-04-01T00:30:41;21.40;39.50
38746;DHT22;24488;0.000;0.000;2023-04-01T00:33:07;21.40;39.50
38746;DHT22;24488;0.000;0.000;2023-04-01T00:35:33;21.40;39.10
38746;DHT22;24488;0.000;0.000;2023-04-01T00:37:58;21.40;39.50
38746;DHT22;24488;0.000;0.000;2023-04-01T00:40:29;21.40;39.50
38746;DHT22;24488;0.000;0.000;2023-04-01T00:42:59;21.40;39.50
38746;DHT22;24488;0.000;0.000;2023-04-01T00:45:26;21.40;39.10
38746;DHT22;24488;0.000;0.000;2023-04-01T00:47:52;21.40;39.50
38746;DHT22;24488;0.000;0.000;2023-04-01T00:50:18;21.40;39.50
38746;DHT22;24488;0.000;0.000;2023-04-01T00:52:44;21.40;39.50
38746;DHT22;24488;0.000;0.000;2023-04-01T00:55:11;21.40;39.00
38746;DHT22;24488;0.000;0.000;2023-04-01T00:57:38;21.40;39.50
38746;DHT22;24488;0.000;0.000;2023-04-01T01:00:05;21.40;39.50
38746;DHT22;24488;0.000;0.000;2023-04-01T01:02:32;21.40;39.50
38746;DHT22;24488;0.000;0.000;2023-04-01T01:04:58;21.40;39.10
38746;DHT22;24488;0.000;0.000;2023-04-01T01:07:28;21.40;39.00
38746;DHT22;24488;0.000;0.000;2023-04-01T01:12:39;21.40;39.50
38746;DHT22;24488;0.000;0.000;2023-04-01T01:15:24;21.40;39.00
38746;DHT22;24488;0.000;0.000;2023-04-01T01:27:11;21.30;39.40
38746;DHT22;24488;0.000;0.000;2023-04-01T01:29:40;21.30;39.50
38746;DHT22;24488;0.000;0.000;2023-04-01T01:32:51;21.40;39.60
38746;DHT22;24488;0.000;0.000;2023-04-01T01:35:28;21.30;39.30
38746;DHT22;24488;0.000;0.000;2023-04-01T01:38:07;21.30;39.80
38746;DHT22;24488;0.000;0.000;2023-04-01T01:40:35;21.30;39.80
38746;DHT22;24488;0.000;0.000;2023-04-01T01:43:05;21.30;39.80
38746;DHT22;24488;0.000;0.000;2023-04-01T01:45:34;21.30;39.30
38746;DHT22;24488;0.000;0.000;2023-04-01T01:48:02;21.30;39.80
38746;DHT22;24488;0.000;0.000;2023-04-01T01:50:28;21.30;39.80
38746;DHT22;24488;0.000;0.000;2023-04-01T01:53:15;21.30;39.70
38746;DHT22;24488;0.000;0.000;2023-04-01T01:55:41;21.30;39.30
38746;DHT22;24488;0.000;0.000;2023-04-01T01:58:12;21.30;39.80
38746;DHT22;24488;0.000;0.000;2023-04-01T02:01:23;21.30;39.70
38746;DHT22;24488;0.000;0.000;2023-04-01T02:03:51;21.30;39.60
38746;DHT22;24488;0.000;0.000;2023-04-01T02:06:18;21.30;39.20
38746;DHT22;24488;0.000;0.000;2023-04-01T02:11:24;21.30;39.60
38746;DHT22;24488;0.000;0.000;2023-04-01T02:14:15;21.30;39.10
38746;DHT22;24488;0.000;0.000;2023-04-01T02:19:08;21.30;39.60
38746;DHT22;24488;0.000;0.000;2023-04-01T02:21:35;21.30;39.60
38746;DHT22;24488;0.000;0.000;2023-04-01T02:24:03;21.40;39.60
38746;DHT22;24488;0.000;0.000;2023-04-01T02:26:31;21.80;39.30
38746;DHT22;24488;0.000;0.000;2023-04-01T02:28:57;21.40;39.60
38746;DHT22;24488;0.000;0.000;2023-04-01T02:31:24;21.40;39.50
38746;DHT22;24488;0.000;0.000;2023-04-01T02:33:50;21.30;39.50
38746;DHT22;24488;0.000;0.000;2023-04-01T02:36:16;21.40;39.10
38746;DHT22;24488;0.000;0.000;2023-04-01T02:38:42;21.40;39.50
38746;DHT22;24488;0.000;0.000;2023-04-01T02:41:09;21.30;39.40
38746;DHT22;24488;0.000;0.000;2023-04-01T02:43:35;21.30;39.00
38746;DHT22;24488;0.000;0.000;2023-04-01T02:46:01;21.30;39.00
38746;DHT22;24488;0.000;0.000;2023-04-01T02:48:27;21.30;39.50
38746;DHT22;24488;0.000;0.000;2023-04-01T02:50:53;21.30;39.50
38746;DHT22;24488;0.000;0.000;2023-04-01T02:53:18;21.30;39.50
38746;DHT22;24488;0.000;0.000;2023-04-01T02:55:44;21.30;39.00
38746;DHT22;24488;0.000;0.000;2023-04-01T02:58:10;21.30;39.50
38746;DHT22;24488;0.000;0.000;2023-04-01T03:00:36;21.30;39.50
38746;DHT22;24488;0.000;0.000;2023-04-01T03:03:02;21.30;39.40
38746;DHT22;24488;0.000;0.000;2023-04-01T03:05:28;21.10;38.90
38746;DHT22;24488;0.000;0.000;2023-04-01T03:07:53;21.30;39.40
38746;DHT22;24488;0.000;0.000;2023-04-01T03:10:19;21.30;39.40
38746;DHT22;24488;0.000;0.000;2023-04-01T03:12:45;21.30;39.40
38746;DHT22;24488;0.000;0.000;2023-04-01T03:15:11;21.30;39.20
38746;DHT22;24488;0.000;0.000;2023-04-01T03:17:39;21.30;39.80
38746;DHT22;24488;0.000;0.000;2023-04-01T03:20:06;21.30;39.70
38746;DHT22;24488;0.000;0.000;2023-04-01T03:22:33;21.30;39.20
38746;DHT22;24488;0.000;0.000;2023-04-01T03:25:00;21.30;39.30
38746;DHT22;24488;0.000;0.000;2023-04-01T03:27:26;21.30;40.30
38746;DHT22;24488;0.000;0.000;2023-04-01T03:29:52;21.30;39.70
38746;DHT22;24488;0.000;0.000;2023-04-01T03:32:18;18.50;37.90
38746;DHT22;24488;0.000;0.000;2023-04-01T03:34:43;21.30;39.70
38746;DHT22;24488;0.000;0.000;2023-04-01T03:37:09;21.30;39.60
38746;DHT22;24488;0.000;0.000;2023-04-01T03:39:35;21.30;39.70
38746;DHT22;24488;0.000;0.000;2023-04-01T03:42:00;21.30;39.20
38746;DHT22;24488;0.000;0.000;2023-04-01T03:44:26;21.40;39.70
38746;DHT22;24488;0.000;0.000;2023-04-01T03:46:55;21.30;39.70
38746;DHT22;24488;0.000;0.000;2023-04-01T03:49:20;21.30;39.70
38746;DHT22;24488;0.000;0.000;2023-04-01T03:51:46;21.30;39.20
38746;DHT22;24488;0.000;0.000;2023-04-01T03:54:12;21.40;39.70
38746;DHT22;24488;0.000;0.000;2023-04-01T03:56:38;21.30;39.60
38746;DHT22;24488;0.000;0.000;2023-04-01T03:59:05;21.30;39.50
38746;DHT22;24488;0.000;0.000;2023-04-01T04:01:31;21.30;39.10
38746;DHT22;24488;0.000;0.000;2023-04-01T04:03:57;21.30;39.60
38746;DHT22;24488;0.000;0.000;2023-04-01T04:06:23;21.30;39.50
38746;DHT22;24488;0.000;0.000;2023-04-01T04:08:49;21.30;39.50
38746;DHT22;24488;0.000;0.000;2023-04-01T04:11:15;21.30;39.50
38746;DHT22;24488;0.000;0.000;2023-04-01T04:13:41;21.30;39.00
38746;DHT22;24488;0.000;0.000;2023-04-01T04:16:07;21.30;39.50
38746;DHT22;24488;0.000;0.000;2023-04-01T04:18:35;21.30;39.50
38746;DHT22;24488;0.000;0.000;2023-04-01T04:21:01;21.30;39.50
38746;DHT22;24488;0.000;0.000;2023-04-01T04:23:26;21.30;39.00
38746;DHT22;24488;0.000;0.000;2023-04-01T04:28:25;21.30;40.10
38746;DHT22;24488;0.000;0.000;2023-04-01T04:30:52;21.30;39.50
38746;DHT22;24488;0.000;0.000;2023-04-01T04:33:18;21.30;39.10
38746;DHT22;24488;0.000;0.000;2023-04-01T04:35:43;21.30;39.50
38746;DHT22;24488;0.000;0.000;2023-04-01T04:38:09;21.30;39.50
38746;DHT22;24488;0.000;0.000;2023-04-01T04:40:38;21.30;39.50
38746;DHT22;24488;0.000;0.000;2023-04-01T04:43:05;21.30;39.20
38746;DHT22;24488;0.000;0.000;2023-04-01T04:45:30;21.30;39.70
38746;DHT22;24488;0.000;0.000;2023-04-01T04:47:56;21.10;39.70
38746;DHT22;24488;0.000;0.000;2023-04-01T04:50:22;21.30;39.80
38746;DHT22;24488;0.000;0.000;2023-04-01T04:52:48;21.30;39.40
38746;DHT22;24488;0.000;0.000;2023-04-01T04:55:14;21.40;39.90
38746;DHT22;24488;0.000;0.000;2023-04-01T04:57:40;21.30;39.90
38746;DHT22;24488;0.000;0.000;2023-04-01T05:00:06;21.30;39.80
38746;DHT22;24488;0.000;0.000;2023-04-01T05:02:32;21.30;39.40
38746;DHT22;24488;0.000;0.000;2023-04-01T05:04:58;21.30;39.80
38746;DHT22;24488;0.000;0.000;2023-04-01T05:07:24;21.30;39.80
38746;DHT22;24488;0.000;0.000;2023-04-01T05:09:49;21.30;39.80
38746;DHT22;24488;0.000;0.000;2023-04-01T05:12:15;21.30;39.30
38746;DHT22;24488;0.000;0.000;2023-04-01T05:14:40;21.30;39.80
38746;DHT22;24488;0.000;0.000;2023-04-01T05:17:10;21.30;39.80
38746;DHT22;24488;0.000;0.000;2023-04-01T05:19:37;21.30;39.80
38746;DHT22;24488;0.000;0.000;2023-04-01T05:22:03;21.30;39.30
38746;DHT22;24488;0.000;0.000;2023-04-01T05:24:28;21.30;39.80
38746;DHT22;24488;0.000;0.000;2023-04-01T05:26:55;21.30;39.80
38746;DHT22;24488;0.000;0.000;2023-04-01T05:29:21;21.30;39.80
38746;DHT22;24488;0.000;0.000;2023-04-01T05:31:46;21.30;39.30
38746;DHT22;24488;0.000;0.000;2023-04-01T05:34:12;21.30;39.70
38746;DHT22;24488;0.000;0.000;2023-04-01T05:36:38;21.30;39.70
38746;DHT22;24488;0.000;0.000;2023-04-01T05:39:03;21.30;39.70
38746;DHT22;24488;0.000;0.000;2023-04-01T05:43:55;21.30;39.30
38746;DHT22;24488;0.000;0.000;2023-04-01T05:46:21;21.30;39.80
38746;DHT22;24488;0.000;0.000;2023-04-01T05:48:46;21.30;39.80
38746;DHT22;24488;0.000;0.000;2023-04-01T05:51:13;21.30;39.80
38746;DHT22;24488;0.000;0.000;2023-04-01T05:53:39;21.30;39.30
38746;DHT22;24488;0.000;0.000;2023-04-01T05:56:05;21.30;39.70
38746;DHT22;24488;0.000;0.000;2023-04-01T05:58:32;21.30;39.70
38746;DHT22;24488;0.000;0.000;2023-04-01T06:01:07;21.30;39.70
38746;DHT22;24488;0.000;0.000;2023-04-01T06:03:34;21.30;39.30
38746;DHT22;24488;0.000;0.000;2023-04-01T06:06:00;21.30;39.70
38746;DHT22;24488;0.000;0.000;2023-04-01T06:08:31;21.30;39.60
38746;DHT22;24488;0.000;0.000;2023-04-01T06:16:21;21.30;39.60
38746;DHT22;24488;0.000;0.000;2023-04-01T06:27:02;21.30;39.60
38746;DHT22;24488;0.000;0.000;2023-04-01T06:30:02;21.30;39.60
38746;DHT22;24488;0.000;0.000;2023-04-01T06:35:31;21.30;39.80
38746;DHT22;24488;0.000;0.000;2023-04-01T06:46:02;21.30;39.80
38746;DHT22;24488;0.000;0.000;2023-04-01T06:48:33;21.30;39.90
38746;DHT22;24488;0.000;0.000;2023-04-01T06:53:43;21.30;39.40
38746;DHT22;24488;0.000;0.000;2023-04-01T06:56:28;21.30;39.90
38746;DHT22;24488;0.000;0.000;2023-04-01T07:04:18;21.30;39.90
38746;DHT22;24488;0.000;0.000;2023-04-01T07:06:53;21.40;39.80
38746;DHT22;24488;0.000;0.000;2023-04-01T07:09:21;21.30;39.80
38746;DHT22;24488;0.000;0.000;2023-04-01T07:11:49;21.40;39.40
38746;DHT22;24488;0.000;0.000;2023-04-01T07:14:24;21.40;39.90
38746;DHT22;24488;0.000;0.000;2023-04-01T07:17:14;21.40;40.20
38746;DHT22;24488;0.000;0.000;2023-04-01T07:19:52;21.40;40.10
38746;DHT22;24488;0.000;0.000;2023-04-01T07:22:32;21.30;39.60
38746;DHT22;24488;0.000;0.000;2023-04-01T07:25:13;21.30;40.10
38746;DHT22;24488;0.000;0.000;2023-04-01T07:27:41;21.40;40.10
38746;DHT22;24488;0.000;0.000;2023-04-01T07:30:12;21.40;40.10
38746;DHT22;24488;0.000;0.000;2023-04-01T07:40:58;21.40;40.20
38746;DHT22;24488;0.000;0.000;2023-04-01T07:46:09;21.40;40.20
38746;DHT22;24488;0.000;0.000;2023-04-01T07:57:20;21.50;40.30
38746;DHT22;24488;0.000;0.000;2023-04-01T08:00:00;21.50;40.40
38746;DHT22;24488;0.000;0.000;2023-04-01T08:02:34;21.40;39.90
38746;DHT22;24488;0.000;0.000;2023-04-01T08:10:28;21.50;40.50
38746;DHT22;24488;0.000;0.000;2023-04-01T08:13:42;21.50;40.00
38746;DHT22;24488;0.000;0.000;2023-04-01T08:15:56;21.50;40.70
38746;DHT22;24488;0.000;0.000;2023-04-01T08:18:46;21.50;40.80
38746;DHT22;24488;0.000;0.000;2023-04-01T08:21:23;21.50;40.60
38746;DHT22;24488;0.000;0.000;2023-04-01T08:23:57;21.50;40.50
38746;DHT22;24488;0.000;0.000;2023-04-01T08:26:39;21.50;40.80
38746;DHT22;24488;0.000;0.000;2023-04-01T08:29:11;21.50;40.70
38746;DHT22;24488;0.000;0.000;2023-04-01T08:34:15;21.60;40.90
38746;DHT22;24488;0.000;0.000;2023-04-01T08:36:49;21.60;41.20
38746;DHT22;24488;0.000;0.000;2023-04-01T08:39:24;21.60;41.00
38746;DHT22;24488;0.000;0.000;2023-04-01T08:50:04;21.60;41.00
38746;DHT22;24488;0.000;0.000;2023-04-01T08:52:35;21.60;40.50
38746;DHT22;24488;0.000;0.000;2023-04-01T09:12:17;21.50;40.30
38746;DHT22;24488;0.000;0.000;2023-04-01T09:26:25;21.50;41.00
38746;DHT22;24488;0.000;0.000;2023-04-01T09:31:50;21.50;40.90
38746;DHT22;24488;0.000;0.000;2023-04-01T09:34:40;21.50;40.40
38746;DHT22;24488;0.000;0.000;2023-04-01T10:01:37;21.50;40.70
38746;DHT22;24488;0.000;0.000;2023-04-01T10:09:48;21.50;40.90
38746;DHT22;24488;0.000;0.000;2023-04-01T10:18:28;21.50;40.80
38746;DHT22;24488;0.000;0.000;2023-04-01T10:21:20;21.50;40.70
38746;DHT22;24488;0.000;0.000;2023-04-01T10:46:19;21.60;41.00
38746;DHT22;24488;0.000;0.000;2023-04-01T10:49:17;21.60;40.90
38746;DHT22;24488;0.000;0.000;2023-04-01T10:54:47;21.60;40.50
38746;DHT22;24488;0.000;0.000;2023-04-01T10:57:36;21.60;41.00
38746;DHT22;24488;0.000;0.000;2023-04-01T11:17:27;21.70;41.10
38746;DHT22;24488;0.000;0.000;2023-04-01T11:22:53;21.70;41.30
38746;DHT22;24488;0.000;0.000;2023-04-01T11:31:11;21.70;41.10
38746;DHT22;24488;0.000;0.000;2023-04-01T11:33:47;21.70;40.70
38746;DHT22;24488;0.000;0.000;2023-04-01T11:39:05;21.70;41.10
38746;DHT22;24488;0.000;0.000;2023-04-01T11:44:47;21.70;40.80
38746;DHT22;24488;0.000;0.000;2023-04-01T11:52:37;21.70;41.40
38746;DHT22;24488;0.000;0.000;2023-04-01T11:55:50;21.70;41.00
38746;DHT22;24488;0.000;0.000;2023-04-01T12:06:23;21.60;40.80
38746;DHT22;24488;0.000;0.000;2023-04-01T12:09:12;21.60;41.20
38746;DHT22;24488;0.000;0.000;2023-04-01T12:23:29;21.60;40.70
38746;DHT22;24488;0.000;0.000;2023-04-01T12:26:25;21.60;41.20
38746;DHT22;24488;0.000;0.000;2023-04-01T12:29:03;21.40;41.00
38746;DHT22;24488;0.000;0.000;2023-04-01T12:31:38;21.60;41.10
38746;DHT22;24488;0.000;0.000;2023-04-01T12:34:33;21.60;40.60
38746;DHT22;24488;0.000;0.000;2023-04-01T12:45:29;21.60;40.60
38746;DHT22;24488;0.000;0.000;2023-04-01T12:54:08;21.60;40.60
38746;DHT22;24488;0.000;0.000;2023-04-01T13:16:24;21.60;41.00
38746;DHT22;24488;0.000;0.000;2023-04-01T13:19:06;21.60;41.00
38746;DHT22;24488;0.000;0.000;2023-04-01T13:21:39;21.60;41.00
38746;DHT22;24488;0.000;0.000;2023-04-01T13:27:01;21.50;41.00
38746;DHT22;24488;0.000;0.000;2023-04-01T13:32:52;21.50;41.00
38746;DHT22;24488;0.000;0.000;2023-04-01T13:40:48;21.50;41.00
38746;DHT22;24488;0.000;0.000;2023-04-01T13:43:19;21.50;40.50
38746;DHT22;24488;0.000;0.000;2023-04-01T13:46:08;21.50;41.00
38746;DHT22;24488;0.000;0.000;2023-04-01T13:49:03;21.50;41.00
38746;DHT22;24488;0.000;0.000;2023-04-01T13:52:04;21.50;41.00
38746;DHT22;24488;0.000;0.000;2023-04-01T13:54:56;21.50;40.50
38746;DHT22;24488;0.000;0.000;2023-04-01T14:01:23;21.50;41.00
38746;DHT22;24488;0.000;0.000;2023-04-01T14:03:43;21.50;40.50
38746;DHT22;24488;0.000;0.000;2023-04-01T14:15:26;21.50;40.50
38746;DHT22;24488;0.000;0.000;2023-04-01T14:21:29;21.50;41.10
38746;DHT22;24488;0.000;0.000;2023-04-01T14:26:46;21.60;41.10
38746;DHT22;24488;0.000;0.000;2023-04-01T14:32:51;21.60;41.10
38746;DHT22;24488;0.000;0.000;2023-04-01T14:35:29;21.60;40.60
38746;DHT22;24488;0.000;0.000;2023-04-01T14:38:42;21.60;41.10
38746;DHT22;24488;0.000;0.000;2023-04-01T14:43:53;21.60;40.80
38746;DHT22;24488;0.000;0.000;2023-04-01T14:49:30;21.70;41.50
38746;DHT22;24488;0.000;0.000;2023-04-01T14:52:04;21.70;41.50
38746;DHT22;24488;0.000;0.000;2023-04-01T14:54:35;21.70;41.10
38746;DHT22;24488;0.000;0.000;2023-04-01T14:57:10;21.70;41.60
38746;DHT22;24488;0.000;0.000;2023-04-01T14:59:41;21.70;41.60
38746;DHT22;24488;0.000;0.000;2023-04-01T15:15:24;21.80;42.00
38746;DHT22;24488;0.000;0.000;2023-04-01T15:28:38;21.90;42.20
38746;DHT22;24488;0.000;0.000;2023-04-01T15:31:10;21.90;42.20
38746;DHT22;24488;0.000;0.000;2023-04-01T15:37:18;21.90;42.20
38746;DHT22;24488;0.000;0.000;2023-04-01T15:44:39;21.90;41.60
38746;DHT22;24488;0.000;0.000;2023-04-01T15:50:17;21.90;42.00
38746;DHT22;24488;0.000;0.000;2023-04-01T15:53:03;21.80;41.50
38746;DHT22;24488;0.000;0.000;2023-04-01T15:58:36;21.80;42.00
38746;DHT22;24488;0.000;0.000;2023-04-01T16:14:36;21.70;41.30
38746;DHT22;24488;0.000;0.000;2023-04-01T16:22:35;21.70;41.80
38746;DHT22;24488;0.000;0.000;2023-04-01T16:30:55;21.70;41.60
38746;DHT22;24488;0.000;0.000;2023-04-01T16:36:10;21.70;41.50
38746;DHT22;24488;0.000;0.000;2023-04-01T16:38:48;21.70;41.50
38746;DHT22;24488;0.000;0.000;2023-04-01T16:41:29;21.70;41.50
38746;DHT22;24488;0.000;0.000;2023-04-01T16:47:50;21.70;41.50
38746;DHT22;24488;0.000;0.000;2023-04-01T16:50:21;21.70;41.40
38746;DHT22;24488;0.000;0.000;2023-04-01T16:53:37;21.70;41.40
38746;DHT22;24488;0.000;0.000;2023-04-01T16:55:51;21.60;40.90
38746;DHT22;24488;0.000;0.000;2023-04-01T17:01:08;21.60;41.40
38746;DHT22;24488;0.000;0.000;2023-04-01T17:03:39;21.60;40.90
38746;DHT22;24488;0.000;0.000;2023-04-01T17:06:12;21.60;41.40
38746;DHT22;24488;0.000;0.000;2023-04-01T17:11:19;21.60;41.30
38746;DHT22;24488;0.000;0.000;2023-04-01T17:16:26;21.60;41.30
38746;DHT22;24488;0.000;0.000;2023-04-01T17:27:54;21.60;41.30
38746;DHT22;24488;0.000;0.000;2023-04-01T17:30:19;21.60;41.30
38746;DHT22;24488;0.000;0.000;2023-04-01T17:38:40;21.60;41.30
38746;DHT22;24488;0.000;0.000;2023-04-01T17:44:16;21.50;40.80
38746;DHT22;24488;0.000;0.000;2023-04-01T17:47:00;21.50;41.30
38746;DHT22;24488;0.000;0.000;2023-04-01T17:52:17;21.50;41.20
38746;DHT22;24488;0.000;0.000;2023-04-01T17:55:07;21.50;40.80
38746;DHT22;24488;0.000;0.000;2023-04-01T18:00:32;21.50;41.30
38746;DHT22;24488;0.000;0.000;2023-04-01T18:05:36;21.60;41.40
38746;DHT22;24488;0.000;0.000;2023-04-01T18:13:46;21.60;40.80
38746;DHT22;24488;0.000;0.000;2023-04-01T18:18:52;21.50;41.30
38746;DHT22;24488;0.000;0.000;2023-04-01T18:24:54;21.60;40.80
38746;DHT22;24488;0.000;0.000;2023-04-01T18:27:02;21.50;41.20
38746;DHT22;24488;0.000;0.000;2023-04-01T18:32:08;21.50;41.10
38746;DHT22;24488;0.000;0.000;2023-04-01T18:34:42;21.50;40.70
38746;DHT22;24488;0.000;0.000;2023-04-01T18:39:57;21.50;41.10
38746;DHT22;24488;0.000;0.000;2023-04-01T18:42:30;21.50;41.10
38746;DHT22;24488;0.000;0.000;2023-04-01T18:45:26;21.50;40.60
38746;DHT22;24488;0.000;0.000;2023-04-01T18:47:56;21.50;41.10
38746;DHT22;24488;0.000;0.000;2023-04-01T18:56:37;21.60;41.10
38746;DHT22;24488;0.000;0.000;2023-04-01T19:07:43;21.60;41.20
38746;DHT22;24488;0.000;0.000;2023-04-01T19:10:33;21.60;41.20
38746;DHT22;24488;0.000;0.000;2023-04-01T19:15:49;21.60;41.30
38746;DHT22;24488;0.000;0.000;2023-04-01T19:20:58;21.70;41.20
38746;DHT22;24488;0.000;0.000;2023-04-01T19:23:53;21.70;40.80
38746;DHT22;24488;0.000;0.000;2023-04-01T19:26:45;21.70;41.30
38746;DHT22;24488;0.000;0.000;2023-04-01T19:29:32;21.70;41.30
38746;DHT22;24488;0.000;0.000;2023-04-01T19:35:23;21.70;41.00
38746;DHT22;24488;0.000;0.000;2023-04-01T19:43:41;21.80;41.30
38746;DHT22;24488;0.000;0.000;2023-04-01T19:48:37;21.80;41.90
38746;DHT22;24488;0.000;0.000;2023-04-01T19:56:46;21.80;41.90
38746;DHT22;24488;0.000;0.000;2023-04-01T19:59:24;21.80;41.90
38746;DHT22;24488;0.000;0.000;2023-04-01T20:04:37;21.80;41.40
38746;DHT22;24488;0.000;0.000;2023-04-01T20:07:17;21.80;41.90
38746;DHT22;24488;0.000;0.000;2023-04-01T20:12:46;21.90;41.80
38746;DHT22;24488;0.000;0.000;2023-04-01T20:17:56;21.90;41.80
38746;DHT22;24488;0.000;0.000;2023-04-01T20:20:27;21.90;41.80
38746;DHT22;24488;0.000;0.000;2023-04-01T20:25:33;21.90;41.40
38746;DHT22;24488;0.000;0.000;2023-04-01T20:28:29;21.90;41.80
38746;DHT22;24488;0.000;0.000;2023-04-01T20:36:36;21.90;41.80
38746;DHT22;24488;0.000;0.000;2023-04-01T20:45:42;21.90;41.20
38746;DHT22;24488;0.000;0.000;2023-04-01T20:50:51;21.90;41.70
38746;DHT22;24488;0.000;0.000;2023-04-01T20:53:22;21.90;41.20
38746;DHT22;24488;0.000;0.000;2023-04-01T21:01:13;21.90;41.60
38746;DHT22;24488;0.000;0.000;2023-04-01T21:03:56;21.90;41.20
38746;DHT22;24488;0.000;0.000;2023-04-01T21:06:33;21.90;41.70
38746;DHT22;24488;0.000;0.000;2023-04-01T21:11:48;21.90;41.70
38746;DHT22;24488;0.000;0.000;2023-04-01T21:16:53;21.90;41.70
38746;DHT22;24488;0.000;0.000;2023-04-01T21:35:53;22.00;41.80
38746;DHT22;24488;0.000;0.000;2023-04-01T21:49:31;22.00;41.80
38746;DHT22;24488;0.000;0.000;2023-04-01T21:55:24;22.00;41.40
38746;DHT22;24488;0.000;0.000;2023-04-01T22:00:54;22.00;41.80
38746;DHT22;24488;0.000;0.000;2023-04-01T22:03:44;22.00;41.40
38746;DHT22;24488;0.000;0.000;2023-04-01T22:06:42;22.00;41.90
38746;DHT22;24488;0.000;0.000;2023-04-01T22:09:18;22.00;42.00
38746;DHT22;24488;0.000;0.000;2023-04-01T22:14:39;22.00;41.60
38746;DHT22;24488;0.000;0.000;2023-04-01T22:17:16;22.00;42.10
38746;DHT22;24488;0.000;0.000;2023-04-01T22:25:17;22.00;41.50
38746;DHT22;24488;0.000;0.000;2023-04-01T22:27:58;22.00;41.90
38746;DHT22;24488;0.000;0.000;2023-04-01T22:30:49;22.00;42.00
38746;DHT22;24488;0.000;0.000;2023-04-01T22:41:26;22.00;42.00
38746;DHT22;24488;0.000;0.000;2023-04-01T22:43:55;22.00;41.60
38746;DHT22;24488;0.000;0.000;2023-04-01T22:49:14;22.00;42.60
38746;DHT22;24488;0.000;0.000;2023-04-01T22:51:49;22.00;41.90
38746;DHT22;24488;0.000;0.000;2023-04-01T22:54:27;22.00;41.40
38746;DHT22;24488;0.000;0.000;2023-04-01T23:04:58;22.10;41.60
38746;DHT22;24488;0.000;0.000;2023-04-01T23:08:16;22.10;42.00
38746;DHT22;24488;0.000;0.000;2023-04-01T23:10:25;22.10;42.00
38746;DHT22;24488;0.000;0.000;2023-04-01T23:13:10;22.00;41.50
38746;DHT22;24488;0.000;0.000;2023-04-01T23:15:38;22.10;42.10
38746;DHT22;24488;0.000;0.000;2023-04-01T23:23:30;22.10;41.60
38746;DHT22;24488;0.000;0.000;2023-04-01T23:26:29;22.10;42.10
38746;DHT22;24488;0.000;0.000;2023-04-01T23:29:17;22.10;42.10
38746;DHT22;24488;0.000;0.000;2023-04-01T23:31:44;22.10;42.10
38746;DHT22;24488;0.000;0.000;2023-04-01T23:36:40;22.10;42.10
38746;DHT22;24488;0.000;0.000;2023-04-01T23:39:30;22.10;42.10
38746;DHT22;24488;0.000;0.000;2023-04-01T23:42:18;22.10;42.10
38746;DHT22;24488;0.000;0.000;2023-04-01T23:44:50;22.10;41.60
38746;DHT22;24488;0.000;0.000;2023-04-01T23:47:18;22.10;42.00
38746;DHT22;24488;0.000;0.000;2023-04-01T23:49:46;22.00;42.00
38746;DHT22;24488;0.000;0.000;2023-04-01T23:54:48;22.00;41.40
38746;DHT22;24488;0.000;0.000;2023-04-01T23:57:34;22.00;41.90
